Time;durP1;ratioP1;P1;durP2;ratioP2;P2;SDS_P1;SDS_P2;PMS_P1;PMS_P2;Temp;Humidity;BMP_temperature;BMP_pressure;BME280_temperature;BME280_humidity;BME280_pressure;Samples;Min_cycle;Max_cycle;Signal;HPM_P1;HPM_P2
2022/01/19 00:01:13;;;;;;;11.23;5.15;;;;;;;5.31;50.81;96817.22;4992940;28;20038;-61
2022/01/19 00:03:38;;;;;;;15.80;6.05;;;;;;;5.08;50.73;96760.00;4992862;28;20037;-64
2022/01/19 00:06:04;;;;;;;14.93;4.80;;;;;;;5.18;50.05;96754.16;4994167;28;20057;-61
2022/01/19 00:08:29;;;;;;;10.63;5.32;;;;;;;5.37;50.46;96779.34;5002416;28;20109;-62
2022/01/19 00:10:55;;;;;;;10.60;5.38;;;;;;;4.80;50.15;96684.19;4992893;28;20026;-62
2022/01/19 00:13:21;;;;;;;18.88;5.28;;;;;;;5.27;50.68;96778.31;4991006;28;20406;-63
2022/01/19 00:15:47;;;;;;;15.15;5.47;;;;;;;4.89;50.58;96718.94;4991371;28;20117;-61
2022/01/19 00:18:15;;;;;;;10.30;4.80;;;;;;;5.29;50.94;96792.91;4992291;28;20704;-61
2022/01/19 00:20:40;;;;;;;15.32;5.88;;;;;;;5.08;51.11;96744.16;4990891;28;20551;-61
2022/01/19 00:23:06;;;;;;;7.60;5.15;;;;;;;4.85;51.26;96736.22;4990456;28;20105;-61
2022/01/19 00:25:32;;;;;;;15.23;5.22;;;;;;;5.08;51.40;96764.47;4991177;28;20522;-61
2022/01/19 00:27:58;;;;;;;10.80;4.93;;;;;;;4.80;51.09;96723.72;4991994;28;20453;-61
2022/01/19 00:30:26;;;;;;;18.60;6.40;;;;;;;5.15;51.07;96780.97;4992274;28;20030;-61
2022/01/19 00:32:51;;;;;;;14.15;5.47;;;;;;;5.06;51.31;96764.66;4992083;28;20026;-63
2022/01/19 00:35:17;;;;;;;18.63;5.10;;;;;;;5.03;51.08;96746.69;4991999;28;20038;-63
2022/01/19 00:37:42;;;;;;;11.02;5.35;;;;;;;4.96;51.16;96740.69;4990790;28;20089;-61
2022/01/19 00:40:10;;;;;;;16.00;5.65;;;;;;;5.10;51.21;96757.91;4992331;28;20042;-61
2022/01/19 00:42:36;;;;;;;10.38;5.60;;;;;;;4.97;51.09;96755.53;4991096;28;20092;-62
2022/01/19 00:45:03;;;;;;;13.65;5.75;;;;;;;5.09;51.28;96751.03;4990554;28;20464;-61
2022/01/19 00:47:28;;;;;;;16.85;5.82;;;;;;;5.10;51.34;96738.66;4990269;28;20033;-61
2022/01/19 00:49:54;;;;;;;15.13;5.63;;;;;;;4.68;51.58;96692.09;4991522;28;20026;-61
2022/01/19 00:52:20;;;;;;;11.98;5.90;;;;;;;4.96;51.39;96709.06;4998223;28;20031;-61
2022/01/19 00:54:46;;;;;;;12.63;5.22;;;;;;;5.01;51.64;96726.84;4998184;28;20438;-61
2022/01/19 00:57:11;;;;;;;15.20;5.05;;;;;;;4.52;52.82;96703.31;4991451;28;20037;-63
2022/01/19 00:59:36;;;;;;;19.05;5.93;;;;;;;4.33;53.01;96670.97;4991598;28;20392;-61
2022/01/19 01:02:02;;;;;;;11.93;4.65;;;;;;;4.34;53.01;96684.94;4991728;28;20080;-62
2022/01/19 01:04:28;;;;;;;7.07;3.92;;;;;;;4.06;54.42;96675.84;4991300;28;20030;-60
2022/01/19 01:06:54;;;;;;;13.57;5.20;;;;;;;4.42;53.10;96687.25;4997420;28;20029;-60
2022/01/19 01:09:19;;;;;;;11.23;4.60;;;;;;;4.48;53.56;96688.19;4989941;28;20026;-60
2022/01/19 01:11:59;;;;;;;17.15;5.57;;;;;;;4.68;53.07;96699.22;4991533;28;20030;-60
2022/01/19 01:19:56;;;;;;;12.98;4.55;;;;;;;4.49;53.00;96656.31;4991390;28;20041;-60
2022/01/19 01:22:21;;;;;;;11.65;5.15;;;;;;;4.56;53.12;96650.97;4993974;28;20022;-60
2022/01/19 01:24:46;;;;;;;8.85;4.50;;;;;;;4.66;52.66;96656.47;4993508;28;20026;-61
2022/01/19 01:27:12;;;;;;;15.88;4.40;;;;;;;3.97;54.19;96614.00;4990859;28;20026;-61
2022/01/19 01:29:37;;;;;;;9.75;4.38;;;;;;;4.62;53.31;96648.22;4991158;28;20050;-60
2022/01/19 01:32:03;;;;;;;12.13;4.30;;;;;;;4.44;53.69;96635.13;4991276;28;20411;-62
2022/01/19 01:34:28;;;;;;;11.10;4.35;;;;;;;4.67;53.06;96647.53;4990669;28;20026;-62
2022/01/19 01:36:54;;;;;;;10.98;4.72;;;;;;;4.75;52.76;96656.91;4990416;28;20101;-62
2022/01/19 01:39:19;;;;;;;11.93;4.20;;;;;;;4.58;53.19;96652.34;4991143;28;20034;-62
2022/01/19 01:41:45;;;;;;;13.15;4.82;;;;;;;4.34;53.64;96645.44;4989879;28;20015;-62
2022/01/19 01:44:10;;;;;;;9.82;4.20;;;;;;;4.72;53.03;96660.81;4990791;28;20038;-62
2022/01/19 01:46:48;;;;;;;10.63;4.28;;;;;;;4.31;52.94;96598.47;4990772;28;20038;-62
2022/01/19 01:49:26;;;;;;;9.13;4.20;;;;;;;4.57;53.08;96628.84;4990943;28;20026;-62
2022/01/19 01:54:35;;;;;;;13.30;4.15;;;;;;;4.69;52.71;96637.53;4994710;28;20133;-61
2022/01/19 01:57:01;;;;;;;13.13;4.75;;;;;;;4.38;52.65;96576.25;4990417;28;20105;-60
2022/01/19 01:59:27;;;;;;;10.02;4.35;;;;;;;4.66;52.67;96593.22;4989829;28;20030;-61
2022/01/19 02:01:52;;;;;;;11.45;3.78;;;;;;;4.42;52.95;96579.25;4988738;28;20468;-61
2022/01/19 02:04:22;;;;;;;16.85;4.38;;;;;;;4.46;53.25;96572.50;4990552;28;20029;-61
2022/01/19 02:07:12;;;;;;;12.32;4.80;;;;;;;4.56;52.63;96577.19;4990032;28;20180;-61
2022/01/19 02:09:38;;;;;;;12.60;4.60;;;;;;;4.59;52.49;96555.63;4992540;28;20117;-61
2022/01/19 02:23:56;;;;;;;12.43;4.50;;;;;;;4.78;52.29;96551.03;4996627;28;20041;-62
2022/01/19 02:26:24;;;;;;;13.10;4.60;;;;;;;4.58;52.58;96525.84;4988459;28;20046;-62
2022/01/19 02:29:11;;;;;;;10.48;5.35;;;;;;;4.75;52.28;96543.56;4990350;28;20026;-62
2022/01/19 02:36:34;;;;;;;13.85;5.07;;;;;;;4.54;52.32;96537.06;4990548;28;20033;-62
2022/01/19 02:40:13;;;;;;;9.43;5.20;;;;;;;4.59;52.20;96529.28;4989755;28;20030;-60
2022/01/19 02:50:37;;;;;;;13.27;4.78;;;;;;;4.26;52.22;96466.66;4990361;28;20074;-62
2022/01/19 02:53:03;;;;;;;11.32;4.80;;;;;;;4.31;52.12;96498.38;4995011;28;20038;-62
2022/01/19 02:55:29;;;;;;;12.13;5.40;;;;;;;4.34;52.24;96496.06;4996635;28;20399;-62
2022/01/19 02:57:55;;;;;;;14.15;5.68;;;;;;;4.02;52.91;96476.41;4989805;28;20030;-61
2022/01/19 03:08:54;;;;;;;16.25;5.43;;;;;;;4.35;52.46;96539.03;4995899;28;20065;-60
2022/01/19 03:11:20;;;;;;;7.43;5.20;;;;;;;4.29;52.78;96530.19;4990071;28;20038;-60
2022/01/19 03:13:46;;;;;;;15.05;6.18;;;;;;;4.14;52.90;96530.66;4993607;28;20471;-60
2022/01/19 03:16:12;;;;;;;14.07;6.00;;;;;;;3.64;53.84;96486.34;4994062;28;20494;-61
2022/01/19 03:18:38;;;;;;;17.80;6.25;;;;;;;3.96;54.29;96533.41;4993414;28;20025;-61
2022/01/19 03:21:04;;;;;;;16.63;6.30;;;;;;;3.81;53.59;96485.69;4993896;28;20084;-61
2022/01/19 03:23:30;;;;;;;15.73;6.15;;;;;;;4.03;53.46;96499.06;5006365;28;20117;-60
2022/01/19 03:25:57;;;;;;;22.15;6.47;;;;;;;3.79;53.43;96483.28;4994902;28;20149;-60
2022/01/19 03:28:23;;;;;;;17.15;6.65;;;;;;;3.90;53.12;96492.22;4993211;28;20031;-61
2022/01/19 03:30:48;;;;;;;14.60;6.28;;;;;;;3.57;53.49;96448.81;4992250;28;20053;-61
2022/01/19 03:33:14;;;;;;;17.08;6.32;;;;;;;4.04;53.19;96511.19;4993358;28;20037;-61
2022/01/19 03:35:40;;;;;;;14.93;6.10;;;;;;;3.76;53.11;96465.31;4993400;28;20117;-61
2022/01/19 03:38:09;;;;;;;19.77;7.25;;;;;;;4.10;53.06;96510.31;4994192;28;20022;-61
2022/01/19 03:40:35;;;;;;;28.55;7.78;;;;;;;4.18;53.00;96515.22;5004373;28;20408;-61
2022/01/19 03:43:01;;;;;;;17.65;6.28;;;;;;;4.35;53.33;96510.03;4991719;28;20030;-61
2022/01/19 03:45:27;;;;;;;14.98;6.22;;;;;;;4.41;53.33;96474.91;4992930;28;20438;-61
2022/01/19 03:48:08;;;;;;;14.75;6.53;;;;;;;4.81;53.22;96482.00;4992748;28;20030;-61
2022/01/19 03:50:34;;;;;;;12.30;5.70;;;;;;;5.22;52.72;96494.94;4992031;28;20464;-61
2022/01/19 03:53:00;;;;;;;14.27;5.72;;;;;;;5.48;52.13;96498.03;4998729;28;20037;-61
2022/01/19 03:55:26;;;;;;;14.63;6.45;;;;;;;5.37;51.09;96502.28;4997859;28;20080;-61
2022/01/19 03:57:51;;;;;;;18.92;6.80;;;;;;;5.35;51.61;96507.03;4992718;28;20147;-61
2022/01/19 04:00:19;;;;;;;15.40;6.20;;;;;;;4.47;52.18;96420.47;4992989;28;20072;-61
2022/01/19 04:02:44;;;;;;;12.73;5.22;;;;;;;3.22;56.66;96497.91;4992759;28;20026;-61
2022/01/19 04:05:18;;;;;;;11.00;4.80;;;;;;;3.76;55.45;96486.34;4992619;28;20078;-62
2022/01/19 04:07:43;;;;;;;13.05;5.47;;;;;;;4.81;53.84;96493.38;4998747;28;20030;-61
2022/01/19 04:10:09;;;;;;;19.58;8.50;;;;;;;5.36;52.67;96497.25;4999104;28;20022;-61
2022/01/19 04:12:55;;;;;;;13.40;8.98;;;;;;;5.65;52.47;96485.63;4992504;28;20027;-63
2022/01/19 04:15:21;;;;;;;21.88;9.45;;;;;;;6.17;51.18;96503.88;4992359;28;20732;-61
2022/01/19 04:17:52;;;;;;;16.20;9.95;;;;;;;6.43;50.36;96520.09;4992204;28;20034;-62
2022/01/19 04:20:19;;;;;;;19.52;10.98;;;;;;;6.61;50.36;96525.13;4992660;28;20018;-61
2022/01/19 04:22:44;;;;;;;18.98;12.32;;;;;;;6.64;50.05;96521.16;4998385;28;20066;-62
2022/01/19 04:25:10;;;;;;;22.02;11.93;;;;;;;6.84;49.94;96524.06;4998176;28;20035;-62
2022/01/19 04:27:36;;;;;;;23.63;12.23;;;;;;;6.95;49.58;96525.00;4991896;28;20023;-62
2022/01/19 04:30:11;;;;;;;19.25;11.25;;;;;;;7.07;49.70;96520.41;4992280;28;20022;-62
2022/01/19 04:32:47;;;;;;;23.23;14.20;;;;;;;7.12;48.63;96517.81;4992268;28;20104;-61
2022/01/19 04:35:17;;;;;;;15.60;10.95;;;;;;;7.14;49.25;96494.53;4992088;28;20076;-61
2022/01/19 05:15:21;;;;;;;17.80;12.10;;;;;;;5.63;53.81;96463.13;4991047;28;20503;-62
2022/01/19 05:17:46;;;;;;;20.63;11.32;;;;;;;5.88;52.90;96439.75;4989741;28;20030;-63
2022/01/19 05:20:12;;;;;;;22.15;12.02;;;;;;;6.12;52.19;96476.59;4991275;28;20022;-62
2022/01/19 05:22:38;;;;;;;22.15;10.85;;;;;;;6.44;51.47;96482.06;4991032;28;20060;-62
2022/01/19 05:25:04;;;;;;;15.85;11.15;;;;;;;6.58;51.23;96480.66;4997207;28;20033;-62
2022/01/19 05:27:31;;;;;;;18.48;9.68;;;;;;;6.73;50.75;96453.59;4989486;28;20058;-61
2022/01/19 05:29:56;;;;;;;12.43;8.82;;;;;;;6.91;49.68;96449.81;4991112;28;20027;-62
2022/01/19 05:32:22;;;;;;;15.48;8.32;;;;;;;7.00;49.74;96440.41;4991189;28;20026;-63
2022/01/19 05:34:48;;;;;;;14.93;8.45;;;;;;;7.01;48.94;96420.81;4990131;28;20037;-61
2022/01/19 05:37:13;;;;;;;12.50;7.60;;;;;;;7.01;48.72;96408.44;4988880;28;20026;-61
2022/01/19 05:39:39;;;;;;;13.77;8.55;;;;;;;7.45;48.10;96458.56;4996004;28;20323;-60
2022/01/19 05:42:04;;;;;;;14.73;8.00;;;;;;;6.76;47.75;96443.34;4997682;28;20022;-61
2022/01/19 05:44:30;;;;;;;14.40;8.40;;;;;;;6.65;48.46;96457.47;4990678;28;20037;-62
2022/01/19 05:46:55;;;;;;;14.57;8.38;;;;;;;6.90;48.03;96448.22;4989273;28;20022;-62
2022/01/19 05:49:20;;;;;;;14.77;9.02;;;;;;;6.58;48.72;96432.28;4990839;28;20103;-61
2022/01/19 05:51:47;;;;;;;13.63;9.43;;;;;;;6.65;48.77;96412.50;4989506;28;20479;-62
2022/01/19 05:54:13;;;;;;;22.65;9.60;;;;;;;6.86;48.46;96407.44;4995067;28;20403;-62
2022/01/19 05:56:38;;;;;;;16.83;11.48;;;;;;;7.20;48.86;96437.16;4996520;28;20037;-62
2022/01/19 05:59:04;;;;;;;19.08;11.77;;;;;;;7.40;49.22;96447.16;4988913;28;20022;-62
2022/01/19 06:01:29;;;;;;;18.05;10.77;;;;;;;7.47;48.75;96434.50;4989199;28;20506;-62
2022/01/19 06:03:54;;;;;;;17.75;12.43;;;;;;;7.45;48.84;96455.94;4990347;28;20046;-68
2022/01/19 06:06:20;;;;;;;27.30;15.40;;;;;;;7.32;48.89;96434.34;4990314;28;20038;-66
2022/01/19 06:08:58;;;;;;;27.35;14.98;;;;;;;7.49;49.19;96445.63;4996942;28;20537;-66
2022/01/19 06:11:24;;;;;;;25.88;15.35;;;;;;;7.41;48.68;96425.72;4997385;28;20101;-67
2022/01/19 06:13:49;;;;;;;25.02;15.18;;;;;;;7.64;48.97;96437.81;4992417;28;20117;-64
2022/01/19 06:16:14;;;;;;;22.15;14.30;;;;;;;7.50;48.32;96400.38;4990111;28;20476;-63
2022/01/19 06:18:42;;;;;;;24.85;15.27;;;;;;;7.72;48.34;96410.06;4990104;28;20442;-61
2022/01/19 06:21:08;;;;;;;27.58;15.15;;;;;;;7.80;48.13;96410.38;4989725;28;20057;-64
2022/01/19 06:23:36;;;;;;;27.83;16.08;;;;;;;7.82;48.25;96391.59;4988461;28;20066;-66
2022/01/19 06:26:01;;;;;;;36.10;16.75;;;;;;;7.65;48.37;96367.13;4996779;28;20041;-62
2022/01/19 06:28:26;;;;;;;29.17;17.45;;;;;;;7.78;47.55;96395.81;4989722;28;20026;-63
2022/01/19 06:30:52;;;;;;;27.55;16.10;;;;;;;7.96;47.68;96410.50;4989232;28;20023;-62
2022/01/19 06:33:17;;;;;;;24.15;15.82;;;;;;;7.87;47.86;96404.88;4988716;28;20427;-63
2022/01/19 06:35:42;;;;;;;22.38;15.88;;;;;;;7.95;48.38;96415.00;4989991;28;20022;-63
2022/01/19 06:38:08;;;;;;;28.23;17.55;;;;;;;8.05;47.56;96408.97;4991361;28;20050;-62
2022/01/19 06:40:33;;;;;;;25.88;15.65;;;;;;;8.00;47.64;96390.38;5000212;28;20029;-62
2022/01/19 06:42:59;;;;;;;26.20;16.13;;;;;;;7.80;47.69;96357.41;4990961;28;20105;-61
2022/01/19 06:45:24;;;;;;;25.45;15.48;;;;;;;8.08;47.55;96409.22;4989899;28;20126;-61
2022/01/19 06:47:50;;;;;;;28.92;16.75;;;;;;;8.04;47.74;96396.78;4987607;28;20027;-67
2022/01/19 06:50:19;;;;;;;23.70;16.27;;;;;;;7.99;50.19;96383.50;4988954;28;20371;-70
2022/01/19 06:52:44;;;;;;;30.83;17.25;;;;;;;6.45;50.15;96409.66;4989550;28;20486;-64
2022/01/19 06:55:10;;;;;;;27.33;16.42;;;;;;;6.20;52.19;96418.88;4996287;28;20091;-61
2022/01/19 06:57:35;;;;;;;28.90;17.52;;;;;;;6.71;51.03;96392.25;4989749;28;20018;-62
2022/01/19 07:00:01;;;;;;;25.13;17.13;;;;;;;7.21;50.74;96412.28;4986120;28;21421;-62
2022/01/19 07:02:28;;;;;;;24.50;15.82;;;;;;;5.36;53.91;96386.44;4989847;28;20073;-65
2022/01/19 07:04:53;;;;;;;25.90;17.23;;;;;;;6.46;52.14;96408.63;4988340;28;20023;-62
2022/01/19 07:07:19;;;;;;;21.95;16.17;;;;;;;6.11;52.82;96401.84;4987890;28;20033;-64
2022/01/19 07:09:45;;;;;;;25.80;17.45;;;;;;;6.07;53.45;96397.28;4994956;28;20037;-63
2022/01/19 07:12:11;;;;;;;25.73;18.38;;;;;;;6.70;52.36;96391.41;4994874;28;20106;-63
2022/01/19 07:14:37;;;;;;;32.60;19.13;;;;;;;7.09;51.19;96399.22;4989215;28;20196;-60
2022/01/19 07:17:03;;;;;;;25.60;17.83;;;;;;;6.51;50.20;96355.81;4989341;28;20030;-64
2022/01/19 07:19:29;;;;;;;23.50;16.95;;;;;;;5.46;54.30;96400.59;4988115;28;20030;-62
2022/01/19 07:21:54;;;;;;;28.70;17.92;;;;;;;4.88;56.62;96374.59;4989859;28;20030;-64
2022/01/19 07:24:20;;;;;;;30.27;17.52;;;;;;;4.59;57.41;96400.94;4995801;28;20026;-64
2022/01/19 07:26:45;;;;;;;33.13;20.10;;;;;;;4.58;57.84;96378.25;4995624;28;20054;-61
2022/01/19 07:29:11;;;;;;;27.95;18.52;;;;;;;5.32;56.11;96391.41;4989739;28;20026;-62
2022/01/19 07:31:36;;;;;;;28.95;19.35;;;;;;;5.27;55.54;96388.69;4989773;28;20026;-60
2022/01/19 07:34:01;;;;;;;31.52;20.10;;;;;;;5.54;54.73;96367.75;4988059;28;20030;-62
2022/01/19 07:36:29;;;;;;;28.20;20.30;;;;;;;5.07;56.55;96364.63;4989075;28;20054;-63
2022/01/19 07:38:54;;;;;;;28.50;19.42;;;;;;;5.81;54.88;96374.97;4989034;28;20033;-63
2022/01/19 07:41:19;;;;;;;29.70;19.95;;;;;;;4.92;56.84;96365.97;4994411;28;20022;-64
2022/01/19 07:43:45;;;;;;;31.63;19.75;;;;;;;5.70;55.07;96368.75;4988075;28;20019;-67
2022/01/19 07:46:10;;;;;;;27.90;18.70;;;;;;;4.04;57.61;96290.84;4988370;28;20026;-64
2022/01/19 07:48:36;;;;;;;26.77;19.33;;;;;;;5.90;54.97;96347.91;4989185;28;20243;-64
2022/01/19 07:51:01;;;;;;;28.27;19.17;;;;;;;6.57;52.85;96343.44;4989575;28;20037;-64
2022/01/19 07:53:26;;;;;;;27.52;19.88;;;;;;;6.83;52.52;96374.38;4993652;28;20036;-63
2022/01/19 07:55:53;;;;;;;27.77;19.05;;;;;;;6.76;51.06;96377.22;4999096;28;20428;-65
2022/01/19 07:58:19;;;;;;;29.33;19.88;;;;;;;7.15;50.40;96361.19;4995585;28;20077;-66
2022/01/19 08:00:44;;;;;;;30.27;19.35;;;;;;;7.20;50.61;96363.88;4993103;28;20026;-63
2022/01/19 08:03:10;;;;;;;25.77;19.80;;;;;;;7.16;50.91;96375.19;4992726;28;20022;-63
2022/01/19 08:05:35;;;;;;;24.15;18.65;;;;;;;6.38;51.91;96380.75;4992455;28;20101;-65
2022/01/19 08:08:02;;;;;;;24.10;17.90;;;;;;;6.73;50.49;96385.66;4993013;28;21254;-63
2022/01/19 08:10:29;;;;;;;24.05;19.33;;;;;;;7.19;50.63;96356.97;5001415;28;20022;-63
2022/01/19 08:12:55;;;;;;;26.42;18.42;;;;;;;6.07;52.16;96326.75;4994169;28;20118;-64
2022/01/19 08:15:21;;;;;;;27.38;19.55;;;;;;;6.92;51.26;96341.16;4991040;28;20027;-63
2022/01/19 08:17:46;;;;;;;24.02;18.88;;;;;;;6.92;50.82;96359.66;4992255;28;20026;-63
2022/01/19 08:20:12;;;;;;;28.40;19.05;;;;;;;7.39;49.89;96326.44;4992469;28;20511;-64
2022/01/19 08:22:38;;;;;;;24.80;19.00;;;;;;;7.74;49.05;96324.00;4992413;28;20466;-64
2022/01/19 08:25:04;;;;;;;24.30;18.83;;;;;;;7.68;48.47;96234.22;4993081;28;20015;-64
2022/01/19 08:27:30;;;;;;;25.65;18.45;;;;;;;8.48;47.73;96327.53;4997055;28;20137;-63
2022/01/19 08:29:57;;;;;;;22.20;16.90;;;;;;;8.72;47.07;96307.44;4992207;28;20419;-63
2022/01/19 08:32:23;;;;;;;21.05;17.90;;;;;;;9.12;46.46;96335.06;4992331;28;20053;-64
2022/01/19 08:34:48;;;;;;;24.45;17.25;;;;;;;9.28;46.28;96344.63;4991979;28;20062;-64
2022/01/19 08:37:15;;;;;;;21.50;16.85;;;;;;;9.16;45.70;96309.56;4990577;28;20669;-64
2022/01/19 08:39:42;;;;;;;18.85;16.83;;;;;;;9.37;44.65;96324.44;4997189;28;20479;-64
2022/01/19 08:42:08;;;;;;;22.70;17.65;;;;;;;9.60;45.01;96330.25;4989536;28;20041;-65
2022/01/19 08:44:33;;;;;;;21.38;17.83;;;;;;;8.77;44.85;96326.00;4990621;28;20062;-65
2022/01/19 08:46:58;;;;;;;21.90;16.83;;;;;;;9.22;45.27;96313.03;4990248;28;20019;-65
2022/01/19 08:49:24;;;;;;;22.20;16.65;;;;;;;9.68;45.13;96316.44;4990736;28;20030;-65
2022/01/19 08:51:49;;;;;;;19.85;16.98;;;;;;;9.83;43.94;96299.66;4992122;28;20084;-66
2022/01/19 08:54:16;;;;;;;17.40;15.25;;;;;;;10.11;43.52;96328.25;4994274;28;20411;-64
2022/01/19 08:56:41;;;;;;;19.40;15.48;;;;;;;9.91;43.33;96304.41;4995039;28;20523;-64
2022/01/19 08:59:07;;;;;;;19.77;17.23;;;;;;;9.97;43.06;96310.50;4991818;28;20026;-64
2022/01/19 09:01:32;;;;;;;17.92;15.88;;;;;;;9.95;43.49;96325.94;4991806;28;20022;-64
2022/01/19 09:03:58;;;;;;;19.13;15.07;;;;;;;9.82;42.84;96327.28;4990141;28;20030;-64
2022/01/19 09:06:24;;;;;;;20.02;17.48;;;;;;;9.68;43.85;96320.97;4991447;28;20023;-64
2022/01/19 09:08:50;;;;;;;21.13;16.38;;;;;;;9.39;43.60;96292.31;4991333;28;20026;-63
2022/01/19 09:11:16;;;;;;;20.23;16.60;;;;;;;9.49;43.45;96329.47;4999866;28;20076;-64
2022/01/19 09:13:41;;;;;;;25.20;17.02;;;;;;;9.31;43.87;96320.19;4994619;28;20022;-64
2022/01/19 09:16:06;;;;;;;18.45;16.08;;;;;;;8.99;44.38;96288.59;4971916;28;20043;-65
2022/01/19 09:18:32;;;;;;;20.85;16.75;;;;;;;8.94;44.05;96295.78;4971842;28;20019;-63
2022/01/19 09:20:57;;;;;;;20.00;16.58;;;;;;;8.85;44.34;96306.94;4972317;28;20097;-63
2022/01/19 09:23:23;;;;;;;22.83;18.25;;;;;;;8.62;45.07;96296.81;4975556;28;20030;-67
2022/01/19 09:25:49;;;;;;;21.00;16.90;;;;;;;8.71;44.85;96316.44;4996272;28;20023;-64
2022/01/19 09:28:14;;;;;;;23.60;17.38;;;;;;;8.65;45.14;96296.28;4996330;28;20105;-63
2022/01/19 09:30:41;;;;;;;24.05;16.35;;;;;;;8.82;44.79;96304.78;4991400;28;20049;-65
2022/01/19 09:33:10;;;;;;;19.27;16.65;;;;;;;7.71;46.90;96294.59;4991161;28;20023;-64
2022/01/19 09:38:23;;;;;;;21.30;16.27;;;;;;;6.93;49.82;96315.50;4990225;28;20033;-64
2022/01/19 09:40:49;;;;;;;23.85;16.73;;;;;;;6.35;50.91;96303.84;4997301;28;20022;-63
2022/01/19 09:43:17;;;;;;;24.95;16.88;;;;;;;7.21;50.20;96312.53;4996337;28;20017;-64
2022/01/19 09:45:43;;;;;;;19.33;17.25;;;;;;;7.63;48.97;96289.78;4989201;28;20030;-64
2022/01/19 09:48:08;;;;;;;22.73;17.58;;;;;;;7.73;48.53;96272.09;4989014;28;20125;-63
2022/01/19 09:50:34;;;;;;;19.92;17.08;;;;;;;7.89;48.19;96257.06;4991042;28;20030;-63
2022/01/19 09:53:04;;;;;;;21.38;17.30;;;;;;;7.97;47.40;96280.41;4989355;28;20486;-63
2022/01/19 09:55:30;;;;;;;24.38;17.02;;;;;;;7.90;47.03;96234.03;4997141;28;20061;-63
2022/01/19 09:57:55;;;;;;;18.88;15.85;;;;;;;8.04;47.29;96274.88;4995574;28;20547;-63
2022/01/19 10:00:21;;;;;;;21.48;15.57;;;;;;;8.03;47.44;96252.84;4990769;28;20644;-63
2022/01/19 10:03:20;;;;;;;18.40;16.13;;;;;;;8.26;47.35;96267.53;4990809;28;20121;-64
2022/01/19 10:06:09;;;;;;;20.55;16.50;;;;;;;8.22;46.90;96266.44;4989393;28;20019;-63
2022/01/19 10:08:51;;;;;;;20.52;15.55;;;;;;;8.38;46.70;96266.50;4989828;28;20092;-63
2022/01/19 10:17:00;;;;;;;19.85;15.80;;;;;;;8.60;46.22;96243.25;4990163;28;20057;-64
2022/01/19 10:19:39;;;;;;;18.13;15.52;;;;;;;8.70;46.31;96242.41;4990073;28;20479;-64
2022/01/19 10:22:09;;;;;;;23.02;17.73;;;;;;;8.65;46.18;96232.63;4989463;28;20032;-64
2022/01/19 10:24:48;;;;;;;21.85;16.33;;;;;;;8.65;45.92;96214.06;4995142;28;20084;-65
2022/01/19 10:27:37;;;;;;;21.95;16.15;;;;;;;8.83;45.86;96218.03;4999253;28;20540;-65
2022/01/19 10:30:02;;;;;;;18.83;15.52;;;;;;;8.87;45.64;96220.97;4998742;28;20114;-64
2022/01/19 10:32:30;;;;;;;20.70;15.18;;;;;;;8.91;45.83;96219.38;4988730;28;20164;-65
2022/01/19 10:34:55;;;;;;;20.95;16.85;;;;;;;8.76;45.80;96178.50;4989587;28;20053;-65
2022/01/19 10:37:27;;;;;;;22.42;17.20;;;;;;;8.92;45.54;96186.47;4988140;28;20483;-65
2022/01/19 10:39:57;;;;;;;16.92;14.57;;;;;;;9.01;45.34;96188.31;4996321;28;20029;-65
2022/01/19 10:42:26;;;;;;;16.77;13.98;;;;;;;7.75;47.65;96195.81;4995320;28;20590;-64
2022/01/19 10:44:58;;;;;;;18.83;14.38;;;;;;;8.53;46.59;96179.84;4989697;28;20089;-67
2022/01/19 10:47:44;;;;;;;16.83;15.13;;;;;;;9.02;45.85;96178.47;4989664;28;20031;-64
2022/01/19 10:50:15;;;;;;;17.38;13.60;;;;;;;8.53;46.33;96176.38;4990139;28;20027;-63
2022/01/19 10:52:44;;;;;;;15.32;13.20;;;;;;;8.51;46.02;96168.69;4988828;28;20113;-63
2022/01/19 10:55:25;;;;;;;16.00;13.75;;;;;;;8.26;46.85;96152.75;4996077;28;20388;-63
2022/01/19 10:57:51;;;;;;;16.23;14.10;;;;;;;9.02;45.78;96160.69;4996303;28;20034;-63
2022/01/19 11:00:16;;;;;;;15.27;12.95;;;;;;;9.06;45.40;96159.09;4990199;28;20023;-64
2022/01/19 11:02:43;;;;;;;14.63;12.35;;;;;;;9.37;44.80;96161.69;4989879;28;20580;-63
2022/01/19 11:05:09;;;;;;;15.80;12.30;;;;;;;9.44;44.54;96132.97;4989656;28;20050;-65
2022/01/19 11:07:35;;;;;;;15.93;12.45;;;;;;;8.96;44.29;96114.00;4988236;28;20022;-63
2022/01/19 11:10:09;;;;;;;15.68;12.45;;;;;;;9.41;44.30;96151.28;4990748;28;20376;-67
2022/01/19 11:12:44;;;;;;;12.18;10.88;;;;;;;8.65;44.96;96131.03;4994122;28;20078;-66
2022/01/19 11:15:09;;;;;;;11.70;10.20;;;;;;;8.79;44.71;96145.34;4981892;28;20096;-65
2022/01/19 11:17:35;;;;;;;10.07;9.07;;;;;;;8.54;44.37;96144.28;4988273;28;20038;-64
2022/01/19 11:20:07;;;;;;;10.82;9.60;;;;;;;7.38;46.74;96145.66;4989926;28;20073;-65
2022/01/19 11:22:39;;;;;;;;;;;;;;;8.27;45.38;96139.22;4990302;28;20116;-63
2022/01/19 11:25:31;;;;;;;12.43;10.40;;;;;;;9.07;43.55;96123.53;4995643;28;20330;-66
2022/01/19 11:27:58;;;;;;;13.32;9.73;;;;;;;9.02;43.84;96125.41;4995961;28;20034;-64
2022/01/19 11:30:27;;;;;;;10.70;9.60;;;;;;;7.97;46.28;96131.25;4989482;28;20033;-64
2022/01/19 11:33:16;;;;;;;12.73;9.60;;;;;;;9.32;43.86;96117.34;4990868;28;20022;-64
2022/01/19 11:35:44;;;;;;;12.43;10.35;;;;;;;9.58;43.41;96117.25;4993020;28;20027;-65
2022/01/19 11:38:47;;;;;;;15.20;11.25;;;;;;;8.89;44.57;96116.13;4992627;28;20091;-65
2022/01/19 11:41:12;;;;;;;;;;;;;;;9.65;43.22;96120.38;4971515;28;20543;-63
2022/01/19 11:43:47;;;;;;;16.90;11.02;;;;;;;8.19;46.04;96107.16;4988655;28;19940;-64
2022/01/19 11:46:44;;;;;;;16.80;11.02;;;;;;;8.38;46.06;96108.25;4973500;28;20026;-63
2022/01/19 11:49:13;;;;;;;13.27;11.25;;;;;;;8.72;45.04;96108.47;4968631;28;20043;-64
2022/01/19 11:51:45;;;;;;;14.05;9.80;;;;;;;8.33;45.14;96105.56;4972327;28;20027;-65
2022/01/19 11:54:31;;;;;;;13.48;10.18;;;;;;;8.30;45.40;96075.09;4977759;28;20030;-64
2022/01/19 11:57:00;;;;;;;13.52;10.48;;;;;;;8.51;44.46;96093.66;4998943;28;20076;-64
2022/01/19 11:59:32;;;;;;;9.85;8.95;;;;;;;8.49;44.04;96063.94;4991828;28;20026;-64
2022/01/19 12:02:20;;;;;;;11.57;8.77;;;;;;;8.17;44.69;96080.91;4991996;28;20031;-64
2022/01/19 12:04:46;;;;;;;11.27;9.00;;;;;;;8.15;45.38;96083.03;4972666;28;20504;-64
2022/01/19 12:07:33;;;;;;;15.48;8.77;;;;;;;8.63;44.24;96078.25;4992485;28;20058;-65
2022/01/19 12:09:58;;;;;;;10.60;9.60;;;;;;;9.27;42.38;96090.81;4992484;28;20715;-64
2022/01/19 12:12:27;;;;;;;12.13;8.27;;;;;;;7.76;45.47;96069.50;4998462;28;20050;-64
2022/01/19 12:14:53;;;;;;;10.43;9.35;;;;;;;8.58;43.48;96017.28;4992414;28;20046;-64
2022/01/19 12:17:26;;;;;;;13.10;10.32;;;;;;;8.36;44.23;96036.16;4992456;28;20022;-64
2022/01/19 12:19:52;;;;;;;15.20;10.57;;;;;;;8.61;44.03;96029.22;4991555;28;20091;-64
2022/01/19 12:22:19;;;;;;;11.50;10.07;;;;;;;8.36;45.19;96052.06;4992722;28;20093;-65
2022/01/19 12:24:56;;;;;;;13.07;11.13;;;;;;;9.02;43.49;96022.69;4991689;28;20038;-64
2022/01/19 12:27:25;;;;;;;14.27;11.10;;;;;;;8.89;44.36;96009.22;4998080;28;20026;-65
2022/01/19 12:30:13;;;;;;;11.48;10.30;;;;;;;8.71;44.76;96043.25;4992184;28;20098;-65
2022/01/19 12:32:50;;;;;;;14.52;10.65;;;;;;;9.56;43.21;96029.06;4992603;28;20034;-64
2022/01/19 12:35:17;;;;;;;12.93;10.38;;;;;;;9.81;42.26;96028.09;4991147;28;20361;-65
2022/01/19 12:37:47;;;;;;;10.93;9.82;;;;;;;8.64;44.35;96010.88;4992015;28;20804;-69
2022/01/19 12:40:18;;;;;;;11.25;10.05;;;;;;;9.70;42.61;96016.75;4993252;28;20114;-68
2022/01/19 12:42:45;;;;;;;15.55;10.35;;;;;;;8.91;44.04;96007.91;4994525;28;20158;-63
2022/01/19 12:45:22;;;;;;;13.23;10.10;;;;;;;8.98;44.13;96010.25;4989960;28;20034;-65
2022/01/19 12:47:50;;;;;;;11.57;10.38;;;;;;;8.68;44.98;95985.41;4990271;28;20038;-64
2022/01/19 12:50:15;;;;;;;11.10;9.90;;;;;;;8.93;44.67;96007.63;4992195;28;20484;-64
2022/01/19 12:52:43;;;;;;;12.23;9.90;;;;;;;9.20;42.94;95986.78;4990845;28;20057;-64
2022/01/19 12:55:17;;;;;;;15.73;10.50;;;;;;;9.03;44.17;95975.72;4993570;28;20480;-65
2022/01/19 12:57:43;;;;;;;14.63;10.55;;;;;;;9.66;42.29;95943.19;5000022;28;20041;-64
2022/01/19 13:00:12;;;;;;;11.70;10.32;;;;;;;9.33;42.62;95956.97;4991836;28;20033;-64
2022/01/19 13:02:37;;;;;;;12.30;9.48;;;;;;;9.17;42.99;95934.25;4991901;28;20065;-64